Wickham Spur, Iowa
Current Conditions -  °F | °C
As of 11:52 AM on Saturday 27 Dec 2014 (Local Time) from KSUX Reporting Station
Scattered Clouds Scattered Clouds  
Wind Chill: 11°   Ceiling: Unl
Heat Index: 21°   Visibility: 10mi
Dew Point: 14°   Wind: 8mph
Humidity: 74%   Direction: 310°NW
Pressure: 30.24"   Gusts: NA
Location:  42.4941°N, 96.3985°W
Report Text: KSUX 271752Z 31007KT 10SM SCT015 M06/M10 A3024 RMK AO2 SLP257 T10611100 11061 21089 50007
Loading
Personal Weather Stations






























Interactive Weather Map New forecast layout! Learn more

10-Day Weather Forecast

Advertisements
Track Severe Weather on mobile